sensor_id;sensor_type;location;lat;lon;timestamp;pressure;altitude;pressure_sealevel;temperature;humidity
27304;BME280;14791;52.392;13.092;2022-10-16T00:01:48;100705.86;;;21.40;51.04
27304;BME280;14791;52.392;13.092;2022-10-16T00:04:17;100718.44;;;21.41;51.05
27304;BME280;14791;52.392;13.092;2022-10-16T00:06:46;100720.64;;;21.42;51.06
27304;BME280;14791;52.392;13.092;2022-10-16T00:09:14;100717.41;;;21.42;51.07
27304;BME280;14791;52.392;13.092;2022-10-16T00:11:43;100723.20;;;21.43;51.08
27304;BME280;14791;52.392;13.092;2022-10-16T00:14:14;100719.13;;;21.43;51.07
27304;BME280;14791;52.392;13.092;2022-10-16T00:16:43;100720.81;;;21.44;51.12
27304;BME280;14791;52.392;13.092;2022-10-16T00:19:12;100723.53;;;21.44;51.17
27304;BME280;14791;52.392;13.092;2022-10-16T00:21:41;100724.89;;;21.44;51.21
27304;BME280;14791;52.392;13.092;2022-10-16T00:24:10;100729.81;;;21.45;51.25
27304;BME280;14791;52.392;13.092;2022-10-16T00:26:39;100733.41;;;21.45;51.33
27304;BME280;14791;52.392;13.092;2022-10-16T00:29:09;100734.58;;;21.47;51.39
27304;BME280;14791;52.392;13.092;2022-10-16T00:31:38;100739.34;;;21.49;51.39
27304;BME280;14791;52.392;13.092;2022-10-16T00:34:07;100745.63;;;21.50;51.38
27304;BME280;14791;52.392;13.092;2022-10-16T00:36:36;100750.57;;;21.50;51.38
27304;BME280;14791;52.392;13.092;2022-10-16T00:39:05;100740.36;;;21.52;51.40
27304;BME280;14791;52.392;13.092;2022-10-16T00:41:34;100739.88;;;21.53;51.45
27304;BME280;14791;52.392;13.092;2022-10-16T00:44:40;100731.02;;;21.55;51.45
27304;BME280;14791;52.392;13.092;2022-10-16T00:46:40;100741.22;;;21.57;51.38
27304;BME280;14791;52.392;13.092;2022-10-16T00:49:14;100737.32;;;21.59;51.37
27304;BME280;14791;52.392;13.092;2022-10-16T00:51:52;100751.78;;;21.60;51.31
27304;BME280;14791;52.392;13.092;2022-10-16T00:54:25;100753.14;;;21.60;51.26
27304;BME280;14791;52.392;13.092;2022-10-16T00:56:55;100753.30;;;21.58;51.26
27304;BME280;14791;52.392;13.092;2022-10-16T00:59:33;100752.97;;;21.57;51.30
27304;BME280;14791;52.392;13.092;2022-10-16T01:02:03;100754.48;;;21.56;51.33
27304;BME280;14791;52.392;13.092;2022-10-16T01:04:37;100759.55;;;21.55;51.34
27304;BME280;14791;52.392;13.092;2022-10-16T01:09:45;100740.03;;;21.51;51.41
27304;BME280;14791;52.392;13.092;2022-10-16T01:12:20;100749.70;;;21.50;51.39
27304;BME280;14791;52.392;13.092;2022-10-16T01:14:55;100750.88;;;21.47;51.40
27304;BME280;14791;52.392;13.092;2022-10-16T01:20:35;100771.75;;;21.42;51.46
27304;BME280;14791;52.392;13.092;2022-10-16T01:23:14;100769.02;;;21.38;51.44
27304;BME280;14791;52.392;13.092;2022-10-16T01:25:52;100777.47;;;21.35;51.47
27304;BME280;14791;52.392;13.092;2022-10-16T01:28:20;100773.73;;;21.32;51.51
27304;BME280;14791;52.392;13.092;2022-10-16T01:30:52;100774.39;;;21.30;51.57
27304;BME280;14791;52.392;13.092;2022-10-16T01:33:24;100774.06;;;21.29;51.61
27304;BME280;14791;52.392;13.092;2022-10-16T01:35:56;100782.52;;;21.26;51.66
27304;BME280;14791;52.392;13.092;2022-10-16T01:38:39;100773.70;;;21.24;51.75
27304;BME280;14791;52.392;13.092;2022-10-16T01:41:11;100782.85;;;21.23;51.81
27304;BME280;14791;52.392;13.092;2022-10-16T01:44:21;100783.52;;;21.21;51.88
27304;BME280;14791;52.392;13.092;2022-10-16T01:46:10;100781.83;;;21.20;51.95
27304;BME280;14791;52.392;13.092;2022-10-16T01:48:41;100790.30;;;21.21;52.00
27304;BME280;14791;52.392;13.092;2022-10-16T01:51:12;100789.46;;;21.20;52.04
27304;BME280;14791;52.392;13.092;2022-10-16T01:53:45;100785.53;;;21.19;52.10
27304;BME280;14791;52.392;13.092;2022-10-16T01:56:14;100795.92;;;21.19;52.14
27304;BME280;14791;52.392;13.092;2022-10-16T01:58:54;100800.33;;;21.20;52.17
27304;BME280;14791;52.392;13.092;2022-10-16T02:01:20;100799.12;;;21.19;52.21
27304;BME280;14791;52.392;13.092;2022-10-16T02:03:51;100796.77;;;21.20;52.21
27304;BME280;14791;52.392;13.092;2022-10-16T02:06:21;100805.24;;;21.21;52.26
27304;BME280;14791;52.392;13.092;2022-10-16T02:08:51;100816.47;;;21.22;52.30
27304;BME280;14791;52.392;13.092;2022-10-16T02:11:20;100815.81;;;21.24;52.30
27304;BME280;14791;52.392;13.092;2022-10-16T02:13:53;100812.06;;;21.25;52.27
27304;BME280;14791;52.392;13.092;2022-10-16T02:16:23;100810.04;;;21.27;52.26
27304;BME280;14791;52.392;13.092;2022-10-16T02:18:51;100816.83;;;21.27;52.27
27304;BME280;14791;52.392;13.092;2022-10-16T02:21:40;100818.52;;;21.28;52.22
27304;BME280;14791;52.392;13.092;2022-10-16T02:29:28;100815.66;;;21.30;52.12
27304;BME280;14791;52.392;13.092;2022-10-16T02:32:00;100813.09;;;21.28;52.15
27304;BME280;14791;52.392;13.092;2022-10-16T02:34:31;100811.73;;;21.28;52.21
27304;BME280;14791;52.392;13.092;2022-10-16T02:37:01;100819.39;;;21.29;52.23
27304;BME280;14791;52.392;13.092;2022-10-16T02:39:34;100828.03;;;21.28;52.26
27304;BME280;14791;52.392;13.092;2022-10-16T02:42:03;100822.95;;;21.29;52.29
27304;BME280;14791;52.392;13.092;2022-10-16T02:44:32;100820.39;;;21.28;52.31
27304;BME280;14791;52.392;13.092;2022-10-16T02:47:00;100818.19;;;21.27;52.31
27304;BME280;14791;52.392;13.092;2022-10-16T02:49:30;100820.54;;;21.26;52.36
27304;BME280;14791;52.392;13.092;2022-10-16T02:51:59;100820.54;;;21.26;52.39
27304;BME280;14791;52.392;13.092;2022-10-16T02:54:27;100824.98;;;21.27;52.39
27304;BME280;14791;52.392;13.092;2022-10-16T02:56:56;100812.75;;;21.27;52.34
27304;BME280;14791;52.392;13.092;2022-10-16T02:59:25;100821.23;;;21.28;52.34
27304;BME280;14791;52.392;13.092;2022-10-16T03:01:54;100824.31;;;21.29;52.29
27304;BME280;14791;52.392;13.092;2022-10-16T03:04:23;100823.95;;;21.28;52.25
27304;BME280;14791;52.392;13.092;2022-10-16T03:06:52;100832.10;;;21.28;52.21
27304;BME280;14791;52.392;13.092;2022-10-16T03:09:20;100832.47;;;21.29;52.17
27304;BME280;14791;52.392;13.092;2022-10-16T03:11:49;100829.75;;;21.29;52.19
27304;BME280;14791;52.392;13.092;2022-10-16T03:14:19;100828.54;;;21.28;52.13
27304;BME280;14791;52.392;13.092;2022-10-16T03:16:48;100815.98;;;21.27;52.10
27304;BME280;14791;52.392;13.092;2022-10-16T03:19:18;100824.14;;;21.27;52.06
27304;BME280;14791;52.392;13.092;2022-10-16T03:21:47;100831.41;;;21.26;52.02
27304;BME280;14791;52.392;13.092;2022-10-16T03:24:16;100848.73;;;21.25;51.99
27304;BME280;14791;52.392;13.092;2022-10-16T03:26:45;100843.45;;;21.23;52.04
27304;BME280;14791;52.392;13.092;2022-10-16T03:29:14;100851.78;;;21.22;52.08
27304;BME280;14791;52.392;13.092;2022-10-16T03:31:43;100855.48;;;21.21;52.06
27304;BME280;14791;52.392;13.092;2022-10-16T03:34:11;100865.00;;;21.21;52.08
27304;BME280;14791;52.392;13.092;2022-10-16T03:36:40;100869.58;;;21.20;52.12
27304;BME280;14791;52.392;13.092;2022-10-16T03:39:09;100874.17;;;21.20;52.16
27304;BME280;14791;52.392;13.092;2022-10-16T03:41:38;100874.17;;;21.20;52.21
27304;BME280;14791;52.392;13.092;2022-10-16T03:44:07;100875.67;;;21.18;52.28
27304;BME280;14791;52.392;13.092;2022-10-16T03:46:36;100881.63;;;21.18;52.29
27304;BME280;14791;52.392;13.092;2022-10-16T03:49:05;100886.72;;;21.17;52.25
27304;BME280;14791;52.392;13.092;2022-10-16T03:51:34;100884.16;;;21.15;52.26
27304;BME280;14791;52.392;13.092;2022-10-16T03:54:02;100886.54;;;21.14;52.31
27304;BME280;14791;52.392;13.092;2022-10-16T03:56:31;100894.84;;;21.13;52.29
27304;BME280;14791;52.392;13.092;2022-10-16T03:59:00;100895.50;;;21.11;52.30
27304;BME280;14791;52.392;13.092;2022-10-16T04:01:29;100903.45;;;21.08;52.31
27304;BME280;14791;52.392;13.092;2022-10-16T04:03:58;100902.61;;;21.08;52.36
27304;BME280;14791;52.392;13.092;2022-10-16T04:06:27;100895.45;;;21.07;52.34
27304;BME280;14791;52.392;13.092;2022-10-16T04:08:56;100894.61;;;21.06;52.36
27304;BME280;14791;52.392;13.092;2022-10-16T04:11:25;100891.38;;;21.07;52.32
27304;BME280;14791;52.392;13.092;2022-10-16T04:13:56;100887.31;;;21.07;52.32
27304;BME280;14791;52.392;13.092;2022-10-16T04:16:25;100896.81;;;21.07;52.26
27304;BME280;14791;52.392;13.092;2022-10-16T04:18:54;100899.89;;;21.08;52.23
27304;BME280;14791;52.392;13.092;2022-10-16T04:21:23;100903.12;;;21.07;52.23
27304;BME280;14791;52.392;13.092;2022-10-16T04:23:56;100896.16;;;21.09;52.12
27304;BME280;14791;52.392;13.092;2022-10-16T04:26:22;100885.30;;;21.09;52.05
27304;BME280;14791;52.392;13.092;2022-10-16T04:28:51;100889.36;;;21.09;51.99
27304;BME280;14791;52.392;13.092;2022-10-16T04:31:20;100874.09;;;21.08;51.94
27304;BME280;14791;52.392;13.092;2022-10-16T04:33:49;100886.31;;;21.08;51.90
27304;BME280;14791;52.392;13.092;2022-10-16T04:36:18;100888.48;;;21.04;51.87
27304;BME280;14791;52.392;13.092;2022-10-16T04:38:47;100888.16;;;21.03;51.83
27304;BME280;14791;52.392;13.092;2022-10-16T04:41:15;100885.25;;;21.00;51.87
27304;BME280;14791;52.392;13.092;2022-10-16T04:43:44;100882.35;;;20.98;51.85
27304;BME280;14791;52.392;13.092;2022-10-16T04:46:13;100883.85;;;20.96;51.83
27304;BME280;14791;52.392;13.092;2022-10-16T04:48:42;100880.11;;;20.93;51.84
27304;BME280;14791;52.392;13.092;2022-10-16T04:51:11;100884.00;;;20.91;51.87
27304;BME280;14791;52.392;13.092;2022-10-16T04:53:40;100889.57;;;20.89;51.98
27304;BME280;14791;52.392;13.092;2022-10-16T04:56:09;100890.23;;;20.87;52.02
27304;BME280;14791;52.392;13.092;2022-10-16T04:58:37;100893.60;;;20.85;52.10
27304;BME280;14791;52.392;13.092;2022-10-16T05:01:06;100899.55;;;20.85;52.24
27304;BME280;14791;52.392;13.092;2022-10-16T05:03:35;100912.61;;;20.85;52.31
27304;BME280;14791;52.392;13.092;2022-10-16T05:06:06;100907.17;;;20.85;52.33
27304;BME280;14791;52.392;13.092;2022-10-16T05:08:35;100914.47;;;20.85;52.39
27304;BME280;14791;52.392;13.092;2022-10-16T05:11:04;100914.28;;;20.82;52.45
27304;BME280;14791;52.392;13.092;2022-10-16T05:13:33;100924.16;;;20.83;52.49
27304;BME280;14791;52.392;13.092;2022-10-16T05:16:02;100919.91;;;20.85;52.46
27304;BME280;14791;52.392;13.092;2022-10-16T05:18:30;100918.40;;;20.86;52.44
27304;BME280;14791;52.392;13.092;2022-10-16T05:20:59;100911.10;;;20.87;52.38
27304;BME280;14791;52.392;13.092;2022-10-16T05:23:28;100906.52;;;20.87;52.38
27304;BME280;14791;52.392;13.092;2022-10-16T05:25:58;100909.09;;;20.89;52.33
27304;BME280;14791;52.392;13.092;2022-10-16T05:28:29;100909.59;;;20.88;52.35
27304;BME280;14791;52.392;13.092;2022-10-16T05:30:58;100915.36;;;20.89;52.32
27304;BME280;14791;52.392;13.092;2022-10-16T05:33:27;100923.17;;;20.88;52.28
27304;BME280;14791;52.392;13.092;2022-10-16T05:35:56;100926.03;;;20.87;52.25
27304;BME280;14791;52.392;13.092;2022-10-16T05:38:25;100925.70;;;20.86;52.18
27304;BME280;14791;52.392;13.092;2022-10-16T05:40:54;100928.89;;;20.85;52.15
27304;BME280;14791;52.392;13.092;2022-10-16T05:43:24;100922.80;;;20.83;52.14
27304;BME280;14791;52.392;13.092;2022-10-16T05:46:03;100923.78;;;20.82;52.13
27304;BME280;14791;52.392;13.092;2022-10-16T05:48:27;100921.07;;;20.82;52.17
27304;BME280;14791;52.392;13.092;2022-10-16T05:51:01;100923.45;;;20.81;52.25
27304;BME280;14791;52.392;13.092;2022-10-16T05:53:32;100923.59;;;20.79;52.27
27304;BME280;14791;52.392;13.092;2022-10-16T05:56:02;100932.25;;;20.79;52.35
27304;BME280;14791;52.392;13.092;2022-10-16T05:58:35;100931.23;;;20.80;52.40
27304;BME280;14791;52.392;13.092;2022-10-16T06:01:06;100933.44;;;20.80;52.48
27304;BME280;14791;52.392;13.092;2022-10-16T06:03:35;100939.23;;;20.81;52.53
27304;BME280;14791;52.392;13.092;2022-10-16T06:06:14;100937.36;;;20.82;52.55
27304;BME280;14791;52.392;13.092;2022-10-16T06:08:45;100942.79;;;20.82;52.61
27304;BME280;14791;52.392;13.092;2022-10-16T06:11:19;100939.92;;;20.84;52.62
27304;BME280;14791;52.392;13.092;2022-10-16T06:14:00;100938.77;;;20.86;52.60
27304;BME280;14791;52.392;13.092;2022-10-16T06:16:25;100936.38;;;20.87;52.61
27304;BME280;14791;52.392;13.092;2022-10-16T06:18:55;100945.08;;;20.91;52.59
27304;BME280;14791;52.392;13.092;2022-10-16T06:21:26;100947.98;;;20.93;52.57
27304;BME280;14791;52.392;13.092;2022-10-16T06:23:55;100954.11;;;20.95;52.55
27304;BME280;14791;52.392;13.092;2022-10-16T06:26:27;100955.66;;;20.98;52.56
27304;BME280;14791;52.392;13.092;2022-10-16T06:28:57;100964.33;;;21.01;52.53
27304;BME280;14791;52.392;13.092;2022-10-16T06:31:27;100967.41;;;21.02;52.49
27304;BME280;14791;52.392;13.092;2022-10-16T06:33:58;100969.80;;;21.06;52.49
27304;BME280;14791;52.392;13.092;2022-10-16T06:36:26;100978.28;;;21.07;52.50
27304;BME280;14791;52.392;13.092;2022-10-16T06:38:56;100986.98;;;21.10;52.52
27304;BME280;14791;52.392;13.092;2022-10-16T06:41:25;100993.12;;;21.12;52.50
27304;BME280;14791;52.392;13.092;2022-10-16T06:43:53;100989.05;;;21.16;52.52
27304;BME280;14791;52.392;13.092;2022-10-16T06:46:24;100986.53;;;21.19;52.50
27304;BME280;14791;52.392;13.092;2022-10-16T06:48:53;100979.78;;;21.23;52.49
27304;BME280;14791;52.392;13.092;2022-10-16T06:51:23;100987.97;;;21.27;52.48
27304;BME280;14791;52.392;13.092;2022-10-16T06:53:54;100991.72;;;21.30;52.46
27304;BME280;14791;52.392;13.092;2022-10-16T06:56:27;100993.45;;;21.35;52.47
27304;BME280;14791;52.392;13.092;2022-10-16T06:58:58;100996.23;;;21.39;52.41
27304;BME280;14791;52.392;13.092;2022-10-16T07:01:28;100992.20;;;21.43;52.39
27304;BME280;14791;52.392;13.092;2022-10-16T07:03:57;101008.02;;;21.48;52.43
27304;BME280;14791;52.392;13.092;2022-10-16T07:06:27;101010.60;;;21.54;52.50
27304;BME280;14791;52.392;13.092;2022-10-16T07:08:56;101018.80;;;21.62;52.49
27304;BME280;14791;52.392;13.092;2022-10-16T07:11:24;101017.14;;;21.69;52.46
27304;BME280;14791;52.392;13.092;2022-10-16T07:13:53;101014.64;;;21.76;52.43
27304;BME280;14791;52.392;13.092;2022-10-16T07:16:24;101008.75;;;21.84;52.36
27304;BME280;14791;52.392;13.092;2022-10-16T07:18:59;101008.78;;;21.93;52.31
27304;BME280;14791;52.392;13.092;2022-10-16T07:21:30;101016.34;;;22.03;52.26
27304;BME280;14791;52.392;13.092;2022-10-16T07:24:01;101015.70;;;22.13;52.26
27304;BME280;14791;52.392;13.092;2022-10-16T07:26:32;101016.59;;;22.22;52.18
27304;BME280;14791;52.392;13.092;2022-10-16T07:29:01;101021.58;;;22.30;52.00
27304;BME280;14791;52.392;13.092;2022-10-16T07:31:31;101018.71;;;22.40;51.80
27304;BME280;14791;52.392;13.092;2022-10-16T07:34:00;101020.97;;;22.49;51.71
27304;BME280;14791;52.392;13.092;2022-10-16T07:36:29;101028.62;;;22.58;51.57
27304;BME280;14791;52.392;13.092;2022-10-16T07:38:58;101013.86;;;22.60;51.45
27304;BME280;14791;52.392;13.092;2022-10-16T07:41:27;101025.45;;;22.70;51.36
27304;BME280;14791;52.392;13.092;2022-10-16T07:43:57;101032.59;;;22.76;51.25
27304;BME280;14791;52.392;13.092;2022-10-16T07:46:27;101022.72;;;22.79;51.17
27304;BME280;14791;52.392;13.092;2022-10-16T07:48:57;101024.10;;;22.83;51.00
27304;BME280;14791;52.392;13.092;2022-10-16T07:51:26;101031.92;;;22.86;51.02
27304;BME280;14791;52.392;13.092;2022-10-16T07:53:55;101038.75;;;22.90;50.97
27304;BME280;14791;52.392;13.092;2022-10-16T07:56:24;101056.47;;;22.94;50.91
27304;BME280;14791;52.392;13.092;2022-10-16T07:58:53;101059.84;;;22.96;50.85
27304;BME280;14791;52.392;13.092;2022-10-16T08:01:23;101060.57;;;22.98;50.76
27304;BME280;14791;52.392;13.092;2022-10-16T08:03:53;101059.21;;;22.98;50.71
27304;BME280;14791;52.392;13.092;2022-10-16T08:06:22;101061.58;;;22.97;50.68
27304;BME280;14791;52.392;13.092;2022-10-16T08:08:51;101061.58;;;22.97;50.59
27304;BME280;14791;52.392;13.092;2022-10-16T08:11:20;101067.36;;;22.94;50.58
27304;BME280;14791;52.392;13.092;2022-10-16T08:13:49;101072.13;;;22.92;50.61
27304;BME280;14791;52.392;13.092;2022-10-16T08:16:18;101075.84;;;22.91;50.67
27304;BME280;14791;52.392;13.092;2022-10-16T08:18:47;101071.95;;;22.89;50.72
27304;BME280;14791;52.392;13.092;2022-10-16T08:21:17;101060.18;;;22.89;50.78
27304;BME280;14791;52.392;13.092;2022-10-16T08:23:47;101052.01;;;22.89;50.80
27304;BME280;14791;52.392;13.092;2022-10-16T08:26:15;101070.40;;;22.91;50.84
27304;BME280;14791;52.392;13.092;2022-10-16T08:28:45;101076.90;;;22.94;50.80
27304;BME280;14791;52.392;13.092;2022-10-16T08:31:15;101085.39;;;22.95;50.77
27304;BME280;14791;52.392;13.092;2022-10-16T08:33:45;101079.95;;;22.95;50.72
27304;BME280;14791;52.392;13.092;2022-10-16T08:36:16;101068.53;;;22.96;50.70
27304;BME280;14791;52.392;13.092;2022-10-16T08:38:49;101070.75;;;22.96;50.70
27304;BME280;14791;52.392;13.092;2022-10-16T08:44:13;101076.55;;;22.97;50.69
27304;BME280;14791;52.392;13.092;2022-10-16T08:46:54;101076.91;;;22.98;50.63
27304;BME280;14791;52.392;13.092;2022-10-16T08:49:21;101088.17;;;22.99;50.66
27304;BME280;14791;52.392;13.092;2022-10-16T08:51:52;101081.88;;;22.99;50.64
27304;BME280;14791;52.392;13.092;2022-10-16T08:54:30;101084.09;;;22.99;50.63
27304;BME280;14791;52.392;13.092;2022-10-16T08:57:06;101089.53;;;22.99;50.61
27304;BME280;14791;52.392;13.092;2022-10-16T08:59:31;101091.23;;;23.00;50.61
27304;BME280;14791;52.392;13.092;2022-10-16T09:02:00;101095.83;;;23.00;50.60
27304;BME280;14791;52.392;13.092;2022-10-16T09:05:00;101106.72;;;23.00;50.56
27304;BME280;14791;52.392;13.092;2022-10-16T09:07:41;101117.62;;;23.00;50.53
27304;BME280;14791;52.392;13.092;2022-10-16T09:15:35;101130.67;;;22.96;50.66
27304;BME280;14791;52.392;13.092;2022-10-16T09:21:08;101118.46;;;23.00;50.73
27304;BME280;14791;52.392;13.092;2022-10-16T09:23:36;101113.36;;;23.05;50.65
27304;BME280;14791;52.392;13.092;2022-10-16T09:26:09;101118.50;;;23.08;50.60
27304;BME280;14791;52.392;13.092;2022-10-16T09:28:37;101116.64;;;23.13;50.47
27304;BME280;14791;52.392;13.092;2022-10-16T09:31:11;101122.26;;;23.16;50.38
27304;BME280;14791;52.392;13.092;2022-10-16T09:33:39;101127.52;;;23.17;50.29
27304;BME280;14791;52.392;13.092;2022-10-16T09:36:10;101134.02;;;23.20;50.23
27304;BME280;14791;52.392;13.092;2022-10-16T09:38:40;101139.97;;;23.24;50.25
27304;BME280;14791;52.392;13.092;2022-10-16T09:41:20;101133.84;;;23.26;50.17
27304;BME280;14791;52.392;13.092;2022-10-16T09:43:58;101137.61;;;23.33;50.04
27304;BME280;14791;52.392;13.092;2022-10-16T09:46:31;101147.81;;;23.39;49.85
27304;BME280;14791;52.392;13.092;2022-10-16T09:49:03;101151.59;;;23.42;49.71
27304;BME280;14791;52.392;13.092;2022-10-16T09:51:34;101159.09;;;23.44;49.53
27304;BME280;14791;52.392;13.092;2022-10-16T09:56:38;101157.89;;;23.43;49.16
27304;BME280;14791;52.392;13.092;2022-10-16T09:59:15;101165.73;;;23.42;49.22
27304;BME280;14791;52.392;13.092;2022-10-16T10:01:55;101166.06;;;23.43;49.22
27304;BME280;14791;52.392;13.092;2022-10-16T10:04:20;101171.17;;;23.46;49.24
27304;BME280;14791;52.392;13.092;2022-10-16T10:06:55;101172.03;;;23.50;49.20
27304;BME280;14791;52.392;13.092;2022-10-16T10:12:02;101163.19;;;23.65;49.09
27304;BME280;14791;52.392;13.092;2022-10-16T10:14:46;101160.96;;;23.72;48.98
27304;BME280;14791;52.392;13.092;2022-10-16T10:17:21;101164.26;;;23.80;48.80
27304;BME280;14791;52.392;13.092;2022-10-16T10:19:58;101173.79;;;23.88;48.72
27304;BME280;14791;52.392;13.092;2022-10-16T10:22:40;101171.75;;;23.94;48.54
27304;BME280;14791;52.392;13.092;2022-10-16T10:30:23;101180.06;;;24.17;47.95
27304;BME280;14791;52.392;13.092;2022-10-16T10:35:48;101184.33;;;24.24;47.53
27304;BME280;14791;52.392;13.092;2022-10-16T10:38:44;101185.69;;;24.24;47.50
27304;BME280;14791;52.392;13.092;2022-10-16T10:44:11;101191.47;;;24.29;47.39
27304;BME280;14791;52.392;13.092;2022-10-16T10:46:57;101187.73;;;24.30;47.40
27304;BME280;14791;52.392;13.092;2022-10-16T10:55:25;101190.77;;;24.39;46.88
27304;BME280;14791;52.392;13.092;2022-10-16T10:58:03;101193.33;;;24.41;46.81
27304;BME280;14791;52.392;13.092;2022-10-16T11:00:42;101186.66;;;24.44;46.69
27304;BME280;14791;52.392;13.092;2022-10-16T11:03:30;101192.16;;;24.48;46.46
27304;BME280;14791;52.392;13.092;2022-10-16T11:06:08;101187.02;;;24.53;46.47
27304;BME280;14791;52.392;13.092;2022-10-16T11:11:26;101206.25;;;24.72;46.21
27304;BME280;14791;52.392;13.092;2022-10-16T11:16:59;101196.09;;;24.93;45.12
27304;BME280;14791;52.392;13.092;2022-10-16T11:19:48;101204.61;;;24.98;44.92
27304;BME280;14791;52.392;13.092;2022-10-16T11:22:22;101196.56;;;25.04;44.62
27304;BME280;14791;52.392;13.092;2022-10-16T11:27:39;101196.50;;;25.13;44.16
27304;BME280;14791;52.392;13.092;2022-10-16T11:30:20;101194.25;;;25.16;43.92
27304;BME280;14791;52.392;13.092;2022-10-16T11:37:59;101188.63;;;25.22;43.35
27304;BME280;14791;52.392;13.092;2022-10-16T11:40:31;101190.31;;;25.23;43.14
27304;BME280;14791;52.392;13.092;2022-10-16T11:43:10;101198.00;;;25.23;43.08
27304;BME280;14791;52.392;13.092;2022-10-16T11:45:46;101195.94;;;25.25;43.07
27304;BME280;14791;52.392;13.092;2022-10-16T11:48:23;101202.09;;;25.28;43.07
27304;BME280;14791;52.392;13.092;2022-10-16T11:50:57;101202.92;;;25.28;43.02
27304;BME280;14791;52.392;13.092;2022-10-16T11:53:39;101204.81;;;25.28;42.85
27304;BME280;14791;52.392;13.092;2022-10-16T11:56:08;101202.92;;;25.28;42.79
27304;BME280;14791;52.392;13.092;2022-10-16T12:01:22;101210.28;;;25.28;42.46
27304;BME280;14791;52.392;13.092;2022-10-16T12:04:06;101214.06;;;25.27;42.21
27304;BME280;14791;52.392;13.092;2022-10-16T12:09:42;101219.86;;;25.23;42.09
27304;BME280;14791;52.392;13.092;2022-10-16T12:11:43;101217.85;;;25.21;42.01
27304;BME280;14791;52.392;13.092;2022-10-16T12:17:02;101220.94;;;25.14;41.99
27304;BME280;14791;52.392;13.092;2022-10-16T12:19:33;101229.47;;;25.11;42.02
27304;BME280;14791;52.392;13.092;2022-10-16T12:22:02;101222.32;;;25.06;41.96
27304;BME280;14791;52.392;13.092;2022-10-16T12:24:37;101222.84;;;25.05;42.01
27304;BME280;14791;52.392;13.092;2022-10-16T12:30:03;101224.05;;;25.03;41.98
27304;BME280;14791;52.392;13.092;2022-10-16T12:32:38;101228.98;;;25.08;42.16
27304;BME280;14791;52.392;13.092;2022-10-16T12:35:23;101231.30;;;25.31;42.20
27304;BME280;14791;52.392;13.092;2022-10-16T12:37:52;101238.17;;;25.77;41.94
27304;BME280;14791;52.392;13.092;2022-10-16T12:40:30;101240.42;;;26.39;41.43
27304;BME280;14791;52.392;13.092;2022-10-16T12:43:10;101243.33;;;27.01;40.87
27304;BME280;14791;52.392;13.092;2022-10-16T12:45:32;101241.54;;;27.70;40.04
27304;BME280;14791;52.392;13.092;2022-10-16T12:48:04;101236.72;;;28.26;39.27
27304;BME280;14791;52.392;13.092;2022-10-16T12:50:38;101235.27;;;28.75;38.50
27304;BME280;14791;52.392;13.092;2022-10-16T12:53:25;101237.73;;;29.16;37.87
27304;BME280;14791;52.392;13.092;2022-10-16T12:58:45;101247.84;;;29.26;37.02
27304;BME280;14791;52.392;13.092;2022-10-16T13:01:24;101261.98;;;29.05;36.92
27304;BME280;14791;52.392;13.092;2022-10-16T13:06:38;101265.31;;;28.59;37.17
27304;BME280;14791;52.392;13.092;2022-10-16T13:17:30;101278.25;;;28.16;37.51
27304;BME280;14791;52.392;13.092;2022-10-16T13:22:50;101281.65;;;27.86;37.51
27304;BME280;14791;52.392;13.092;2022-10-16T13:28:02;101290.36;;;27.64;37.63
27304;BME280;14791;52.392;13.092;2022-10-16T13:30:51;101287.34;;;27.69;37.67
27304;BME280;14791;52.392;13.092;2022-10-16T13:33:20;101287.01;;;27.83;37.64
27304;BME280;14791;52.392;13.092;2022-10-16T13:35:52;101291.45;;;27.95;37.45
27304;BME280;14791;52.392;13.092;2022-10-16T13:38:29;101298.78;;;28.09;37.52
27304;BME280;14791;52.392;13.092;2022-10-16T13:40:57;101294.39;;;28.26;37.40
27304;BME280;14791;52.392;13.092;2022-10-16T13:43:34;101289.24;;;28.44;37.17
27304;BME280;14791;52.392;13.092;2022-10-16T13:46:19;101292.70;;;28.63;37.17
27304;BME280;14791;52.392;13.092;2022-10-16T13:51:29;101294.22;;;29.12;36.75
27304;BME280;14791;52.392;13.092;2022-10-16T13:53:59;101302.36;;;29.33;36.39
27304;BME280;14791;52.392;13.092;2022-10-16T13:56:30;101293.11;;;29.47;36.16
27304;BME280;14791;52.392;13.092;2022-10-16T13:59:22;101303.86;;;29.66;35.76
27304;BME280;14791;52.392;13.092;2022-10-16T14:01:42;101309.51;;;29.76;35.24
27304;BME280;14791;52.392;13.092;2022-10-16T14:04:12;101304.42;;;29.73;34.63
27304;BME280;14791;52.392;13.092;2022-10-16T14:06:44;101310.83;;;29.62;34.47
27304;BME280;14791;52.392;13.092;2022-10-16T14:09:24;101311.95;;;29.51;34.30
27304;BME280;14791;52.392;13.092;2022-10-16T14:12:00;101316.42;;;29.34;33.99
27304;BME280;14791;52.392;13.092;2022-10-16T14:14:40;101318.32;;;29.10;33.86
27304;BME280;14791;52.392;13.092;2022-10-16T14:17:02;101322.31;;;28.79;34.05
27304;BME280;14791;52.392;13.092;2022-10-16T14:19:32;101318.13;;;28.55;34.30
27304;BME280;14791;52.392;13.092;2022-10-16T14:22:02;101319.55;;;28.40;34.70
27304;BME280;14791;52.392;13.092;2022-10-16T14:24:33;101325.11;;;28.36;35.04
27304;BME280;14791;52.392;13.092;2022-10-16T14:27:20;101329.80;;;28.42;35.23
27304;BME280;14791;52.392;13.092;2022-10-16T14:29:33;101323.80;;;28.53;35.25
27304;BME280;14791;52.392;13.092;2022-10-16T14:32:05;101334.50;;;28.70;35.02
27304;BME280;14791;52.392;13.092;2022-10-16T14:34:37;101333.55;;;28.84;34.75